createdAt,value
2023-05-06T00:01:59.619Z,8.68
2023-05-06T00:04:26.988Z,5.90
2023-05-06T00:06:54.265Z,5.13
2023-05-06T00:09:21.296Z,7.85
2023-05-06T00:11:47.923Z,4.97
2023-05-06T00:14:14.494Z,5.97
2023-05-06T00:16:41.258Z,4.38
2023-05-06T00:19:07.831Z,9.18
2023-05-06T00:21:34.366Z,7.57
2023-05-06T00:24:00.918Z,5.07
2023-05-06T00:26:27.617Z,5.82
2023-05-06T00:28:54.195Z,5.13
2023-05-06T00:31:21.928Z,5.32
2023-05-06T00:33:50.497Z,4.93
2023-05-06T00:36:17.469Z,5.32
2023-05-06T00:38:44.254Z,5.50
2023-05-06T00:41:10.873Z,5.57
2023-05-06T00:43:37.403Z,5.50
2023-05-06T00:46:05.498Z,4.63
2023-05-06T00:48:32.305Z,6.10
2023-05-06T00:50:59.175Z,4.47
2023-05-06T00:53:25.775Z,5.57
2023-05-06T00:55:52.573Z,7.35
2023-05-06T00:58:20.201Z,5.63
2023-05-06T01:00:46.934Z,6.50
2023-05-06T01:03:13.736Z,7.30
2023-05-06T01:06:04.178Z,7.07
2023-05-06T01:08:37.519Z,5.18
2023-05-06T01:11:16.104Z,8.02
2023-05-06T01:13:52.374Z,5.75
2023-05-06T01:16:23.521Z,5.07
2023-05-06T01:18:52.508Z,5.50
2023-05-06T01:21:19.678Z,5.53
2023-05-06T01:23:55.212Z,6.30
2023-05-06T01:26:23.078Z,6.00
2023-05-06T01:28:49.918Z,4.93
2023-05-06T01:31:32.145Z,5.65
2023-05-06T01:34:24.278Z,8.18
2023-05-06T01:36:57.723Z,6.13
2023-05-06T01:39:25.853Z,5.60
2023-05-06T01:41:55.922Z,7.28
2023-05-06T01:44:23.481Z,5.93
2023-05-06T01:49:34.921Z,5.45
2023-05-06T01:52:02.279Z,7.18
2023-05-06T01:54:28.909Z,7.47
2023-05-06T01:56:55.451Z,5.60
2023-05-06T01:59:22.061Z,5.47
2023-05-06T02:01:48.700Z,7.53
2023-05-06T02:04:15.485Z,8.77
2023-05-06T02:06:42.164Z,6.22
2023-05-06T02:09:08.755Z,8.32
2023-05-06T02:11:35.305Z,5.90
2023-05-06T02:14:02.152Z,8.20
2023-05-06T02:16:29.462Z,6.85
2023-05-06T02:18:56.190Z,7.60
2023-05-06T02:21:23.355Z,7.07
2023-05-06T02:23:50.128Z,6.13
2023-05-06T02:26:19.231Z,8.80
2023-05-06T02:28:45.886Z,7.22
2023-05-06T02:31:16.370Z,7.78
2023-05-06T02:33:44.985Z,7.50
2023-05-06T02:36:11.568Z,6.85
2023-05-06T02:38:38.096Z,8.02
2023-05-06T02:41:04.817Z,7.63
2023-05-06T02:43:31.413Z,8.75
2023-05-06T02:45:58.063Z,10.45
2023-05-06T02:48:24.686Z,10.88
2023-05-06T02:50:52.059Z,8.35
2023-05-06T02:53:18.569Z,9.25
2023-05-06T02:55:48.045Z,7.88
2023-05-06T02:58:14.766Z,7.65
2023-05-06T03:00:41.352Z,10.75
2023-05-06T03:03:07.977Z,10.48
2023-05-06T03:05:34.768Z,8.15
2023-05-06T03:08:02.520Z,7.63
2023-05-06T03:10:29.071Z,10.98
2023-05-06T03:12:55.652Z,7.60
2023-05-06T03:15:22.283Z,9.07
2023-05-06T03:17:48.871Z,11.82
2023-05-06T03:20:16.956Z,10.50
2023-05-06T03:22:43.672Z,8.05
2023-05-06T03:25:10.676Z,8.68
2023-05-06T03:27:38.091Z,9.15
2023-05-06T03:30:05.050Z,8.45
2023-05-06T03:32:31.912Z,9.60
2023-05-06T03:34:59.626Z,9.38
2023-05-06T03:37:26.309Z,8.18
2023-05-06T03:39:53.159Z,9.73
2023-05-06T03:42:19.686Z,10.20
2023-05-06T03:44:46.232Z,8.30
2023-05-06T03:47:12.781Z,8.50
2023-05-06T03:49:39.320Z,9.95
2023-05-06T03:52:06.008Z,9.85
2023-05-06T03:54:32.587Z,11.00
2023-05-06T03:56:59.166Z,10.23
2023-05-06T03:59:25.733Z,11.68
2023-05-06T04:01:53.027Z,14.10
2023-05-06T04:04:19.712Z,9.85
2023-05-06T04:06:46.469Z,9.15
2023-05-06T04:09:13.033Z,12.35
2023-05-06T04:11:39.729Z,11.80
2023-05-06T04:14:06.319Z,8.60
2023-05-06T04:16:32.932Z,8.15
2023-05-06T04:18:59.508Z,12.05
2023-05-06T04:21:26.082Z,10.00
2023-05-06T04:23:52.678Z,9.13
2023-05-06T04:26:19.233Z,9.95
2023-05-06T04:28:46.070Z,10.55
2023-05-06T04:31:14.599Z,8.95
2023-05-06T04:33:41.691Z,8.70
2023-05-06T04:36:08.831Z,11.02
2023-05-06T04:38:37.463Z,7.70
2023-05-06T04:41:07.033Z,8.38
2023-05-06T04:43:33.671Z,10.10
2023-05-06T04:46:01.845Z,7.32
2023-05-06T04:48:28.495Z,9.43
2023-05-06T04:50:55.002Z,9.25
2023-05-06T04:53:21.568Z,10.00
2023-05-06T04:55:48.082Z,11.73
2023-05-06T04:58:14.678Z,8.63
2023-05-06T05:00:41.304Z,9.27
2023-05-06T05:03:07.956Z,9.18
2023-05-06T05:05:34.888Z,8.63
2023-05-06T05:08:01.536Z,6.97
2023-05-06T05:10:28.823Z,8.10
2023-05-06T05:12:55.574Z,9.15
2023-05-06T05:15:22.251Z,7.90
2023-05-06T05:17:50.727Z,8.68
2023-05-06T05:20:18.016Z,8.93
2023-05-06T05:22:45.119Z,7.10
2023-05-06T05:25:11.933Z,7.85
2023-05-06T05:27:38.928Z,13.77
2023-05-06T05:30:06.475Z,8.07
2023-05-06T05:32:33.066Z,9.38
2023-05-06T05:34:59.710Z,7.93
2023-05-06T05:37:26.333Z,8.80
2023-05-06T05:39:53.006Z,8.23
2023-05-06T05:42:20.158Z,7.57
2023-05-06T05:44:46.815Z,8.65
2023-05-06T05:47:17.772Z,7.72
2023-05-06T05:49:44.454Z,11.00
2023-05-06T05:52:11.376Z,7.95
2023-05-06T05:54:37.952Z,8.35
2023-05-06T05:57:04.496Z,7.30
2023-05-06T05:59:31.702Z,7.28
2023-05-06T06:01:58.545Z,9.73
2023-05-06T06:04:25.688Z,5.90
2023-05-06T06:06:52.345Z,6.75
2023-05-06T06:09:18.954Z,7.35
2023-05-06T06:11:45.552Z,6.00
2023-05-06T06:14:12.127Z,10.15
2023-05-06T06:16:38.907Z,6.95
2023-05-06T06:19:06.602Z,7.80
2023-05-06T06:21:33.344Z,6.03
2023-05-06T06:24:00.028Z,6.13
2023-05-06T06:26:28.732Z,5.05
2023-05-06T06:28:55.333Z,6.57
2023-05-06T06:31:22.014Z,7.60
2023-05-06T06:33:48.657Z,7.05
2023-05-06T06:36:15.220Z,6.88
2023-05-06T06:38:41.914Z,6.40
2023-05-06T06:41:09.016Z,4.97
2023-05-06T06:43:35.932Z,7.60
2023-05-06T06:46:02.553Z,5.65
2023-05-06T06:48:29.376Z,5.82
2023-05-06T06:50:55.926Z,4.55
2023-05-06T06:53:28.207Z,4.82
2023-05-06T06:55:54.823Z,4.05
2023-05-06T06:58:22.444Z,3.97
2023-05-06T07:00:49.129Z,5.00
2023-05-06T07:03:19.520Z,3.78
2023-05-06T07:05:46.612Z,4.60
2023-05-06T07:08:13.281Z,2.95
2023-05-06T07:10:39.972Z,3.67
2023-05-06T07:13:06.611Z,5.93
2023-05-06T07:15:33.166Z,4.10
2023-05-06T07:17:59.840Z,3.28
2023-05-06T07:20:34.171Z,3.20
2023-05-06T07:23:01.159Z,4.35
2023-05-06T07:25:28.269Z,6.88
2023-05-06T07:27:54.911Z,4.45
2023-05-06T07:30:23.147Z,3.47
2023-05-06T07:32:50.187Z,4.18
2023-05-06T07:35:16.910Z,2.72
2023-05-06T07:37:45.909Z,4.20
2023-05-06T07:40:12.761Z,3.58
2023-05-06T07:42:42.821Z,2.70
2023-05-06T07:45:11.195Z,2.20
2023-05-06T07:47:38.745Z,3.05
2023-05-06T07:50:06.865Z,2.50
2023-05-06T07:52:33.629Z,3.55
2023-05-06T07:55:00.265Z,2.83
2023-05-06T07:57:26.903Z,2.75
2023-05-06T07:59:54.564Z,3.63
2023-05-06T08:02:21.192Z,2.50
2023-05-06T08:04:49.550Z,2.30
2023-05-06T08:07:17.729Z,2.25
2023-05-06T08:09:44.347Z,3.03
2023-05-06T08:12:11.163Z,1.90
2023-05-06T08:14:41.182Z,3.83
2023-05-06T08:17:07.791Z,1.75
2023-05-06T08:19:34.445Z,2.05
2023-05-06T08:22:01.003Z,1.50
2023-05-06T08:24:28.385Z,2.95
2023-05-06T08:26:55.228Z,1.55
2023-05-06T08:29:21.830Z,1.35
2023-05-06T08:31:48.747Z,1.70
2023-05-06T08:34:18.503Z,1.52
2023-05-06T08:36:45.292Z,1.88
2023-05-06T08:39:12.554Z,5.05
2023-05-06T08:41:48.327Z,1.40
2023-05-06T08:44:19.274Z,2.47
2023-05-06T08:46:47.023Z,1.35
2023-05-06T08:49:13.562Z,1.23
2023-05-06T08:51:43.609Z,3.55
2023-05-06T08:54:12.962Z,1.85
2023-05-06T08:56:53.370Z,2.38
2023-05-06T08:59:25.195Z,3.97
2023-05-06T09:01:52.639Z,2.25
2023-05-06T09:04:19.599Z,2.53
2023-05-06T09:06:46.242Z,3.45
2023-05-06T09:09:17.468Z,2.15
2023-05-06T09:11:51.924Z,2.33
2023-05-06T09:14:18.496Z,1.42
2023-05-06T09:16:47.747Z,3.17
2023-05-06T09:19:15.904Z,2.55
2023-05-06T09:21:45.454Z,1.17
2023-05-06T09:24:16.602Z,1.17
2023-05-06T09:26:44.849Z,5.07
2023-05-06T09:29:17.753Z,1.45
2023-05-06T09:31:47.433Z,2.35
2023-05-06T09:34:15.980Z,1.90
2023-05-06T09:36:42.558Z,3.20
2023-05-06T09:39:10.130Z,3.13
2023-05-06T09:41:37.117Z,2.70
2023-05-06T09:44:03.962Z,3.30
2023-05-06T09:46:30.764Z,2.00
2023-05-06T09:48:58.778Z,13.73
2023-05-06T09:51:27.897Z,1.55
2023-05-06T09:53:58.155Z,2.55
2023-05-06T09:56:25.527Z,2.95
2023-05-06T09:58:52.684Z,2.95
2023-05-06T10:01:32.727Z,4.43
2023-05-06T10:04:08.370Z,3.75
2023-05-06T10:06:36.966Z,2.50
2023-05-06T10:09:06.333Z,1.42
2023-05-06T10:11:33.285Z,2.25
2023-05-06T10:14:01.418Z,1.90
2023-05-06T10:16:28.687Z,3.35
2023-05-06T10:18:56.150Z,1.45
2023-05-06T10:21:27.544Z,1.25
2023-05-06T10:24:09.226Z,5.10
2023-05-06T10:26:40.842Z,2.20
2023-05-06T10:29:10.337Z,2.03
2023-05-06T10:31:49.124Z,4.43
2023-05-06T10:34:18.072Z,3.33
2023-05-06T10:36:46.065Z,2.13
2023-05-06T10:39:14.403Z,2.25
2023-05-06T10:41:41.393Z,1.92
2023-05-06T10:44:10.154Z,10.20
2023-05-06T10:47:02.442Z,2.72
2023-05-06T10:49:29.319Z,5.73
2023-05-06T10:52:14.738Z,1.52
2023-05-06T10:54:51.467Z,2.25
2023-05-06T10:57:19.356Z,2.45
2023-05-06T10:59:47.171Z,2.25
2023-05-06T11:02:14.749Z,2.10
2023-05-06T11:04:41.789Z,1.20
2023-05-06T11:07:15.959Z,3.67
2023-05-06T11:10:02.506Z,2.08
2023-05-06T11:12:45.738Z,1.75
2023-05-06T11:15:38.056Z,3.53
2023-05-06T11:18:26.977Z,1.50
2023-05-06T11:21:10.576Z,2.00
2023-05-06T11:24:00.199Z,1.52
2023-05-06T11:26:27.214Z,7.70
2023-05-06T11:28:53.796Z,2.30
2023-05-06T11:31:22.497Z,2.35
2023-05-06T11:33:52.931Z,2.70
2023-05-06T11:36:21.215Z,1.40
2023-05-06T11:38:52.931Z,2.63
2023-05-06T11:41:20.230Z,5.10
2023-05-06T11:43:51.116Z,1.55
2023-05-06T11:46:22.439Z,1.90
2023-05-06T11:48:50.616Z,2.58
2023-05-06T11:51:23.460Z,3.65
2023-05-06T11:53:50.019Z,1.30
2023-05-06T11:56:16.681Z,2.08
2023-05-06T11:58:43.261Z,1.77
2023-05-06T12:01:09.942Z,5.50
2023-05-06T12:03:39.815Z,1.70
2023-05-06T12:06:06.930Z,2.38
2023-05-06T12:08:35.958Z,2.40
2023-05-06T12:11:08.248Z,3.40
2023-05-06T12:13:40.639Z,2.33
2023-05-06T12:18:35.965Z,3.85
2023-05-06T12:21:02.962Z,1.77
2023-05-06T12:23:29.668Z,1.45
2023-05-06T12:26:08.415Z,4.45
2023-05-06T12:28:36.850Z,5.43
2023-05-06T12:31:23.008Z,4.88
2023-05-06T12:33:50.448Z,1.92
2023-05-06T12:36:25.728Z,1.48
2023-05-06T12:38:55.291Z,2.85
2023-05-06T12:41:23.448Z,1.95
2023-05-06T12:43:50.442Z,2.17
2023-05-06T12:46:17.439Z,1.20
2023-05-06T12:49:04.291Z,1.58
2023-05-06T12:51:32.393Z,8.70
2023-05-06T12:53:59.801Z,6.10
2023-05-06T12:56:26.471Z,2.42
2023-05-06T12:59:04.357Z,3.42
2023-05-06T13:01:31.706Z,6.05
2023-05-06T13:03:58.522Z,1.13
2023-05-06T13:06:29.093Z,1.10
2023-05-06T13:08:55.644Z,1.98
2023-05-06T13:11:22.327Z,2.67
2023-05-06T13:13:49.044Z,3.40
2023-05-06T13:16:16.138Z,5.03
2023-05-06T13:18:42.866Z,2.67
2023-05-06T13:21:09.488Z,2.00
2023-05-06T13:23:38.070Z,2.10
2023-05-06T13:26:06.228Z,2.88
2023-05-06T13:28:33.991Z,2.60
2023-05-06T13:31:01.066Z,1.83
2023-05-06T13:33:32.343Z,2.55
2023-05-06T13:35:59.137Z,2.40
2023-05-06T13:38:25.842Z,2.33
2023-05-06T13:40:53.775Z,2.78
2023-05-06T13:43:21.858Z,1.65
2023-05-06T13:45:48.490Z,0.98
2023-05-06T13:48:15.441Z,2.25
2023-05-06T13:50:42.563Z,1.95
2023-05-06T13:53:09.263Z,1.73
2023-05-06T13:55:36.213Z,3.05
2023-05-06T13:58:04.014Z,1.77
2023-05-06T14:00:30.941Z,1.67
2023-05-06T14:05:23.501Z,2.23
2023-05-06T14:07:50.270Z,1.85
2023-05-06T14:10:16.869Z,1.50
2023-05-06T14:12:45.232Z,2.13
2023-05-06T14:15:12.350Z,3.30
2023-05-06T14:17:39.251Z,1.55
2023-05-06T14:20:06.702Z,1.70
2023-05-06T14:22:33.335Z,1.90
2023-05-06T14:25:00.030Z,1.90
2023-05-06T14:27:27.010Z,1.90
2023-05-06T14:29:53.781Z,1.60
2023-05-06T14:32:20.435Z,1.20
2023-05-06T14:34:47.204Z,3.75
2023-05-06T14:37:14.128Z,3.33
2023-05-06T14:39:41.120Z,2.67
2023-05-06T14:42:07.835Z,5.90
2023-05-06T14:44:34.467Z,2.85
2023-05-06T14:47:01.201Z,4.32
2023-05-06T14:49:28.003Z,2.95
2023-05-06T14:51:54.578Z,4.38
2023-05-06T14:54:21.236Z,2.88
2023-05-06T14:56:49.785Z,2.22
2023-05-06T14:59:19.328Z,2.30
2023-05-06T15:01:46.067Z,2.60
2023-05-06T15:04:12.696Z,3.22
2023-05-06T15:06:46.030Z,2.17
2023-05-06T15:11:39.278Z,4.95
2023-05-06T15:14:06.067Z,3.03
2023-05-06T15:16:32.947Z,2.83
2023-05-06T15:18:59.554Z,2.70
2023-05-06T15:21:27.777Z,4.43
2023-05-06T15:23:56.186Z,1.60
2023-05-06T15:26:22.832Z,2.42
2023-05-06T15:28:49.450Z,1.98
2023-05-06T15:31:16.308Z,2.42
2023-05-06T15:33:53.694Z,2.28
2023-05-06T15:36:20.470Z,3.22
2023-05-06T15:38:53.244Z,3.58
2023-05-06T15:41:19.901Z,8.88
2023-05-06T15:43:46.508Z,1.80
2023-05-06T15:46:14.853Z,1.10
2023-05-06T15:48:42.004Z,3.53
2023-05-06T15:51:08.682Z,3.28
2023-05-06T15:53:39.554Z,7.93
2023-05-06T15:56:13.605Z,2.30
2023-05-06T15:58:44.571Z,2.50
2023-05-06T16:01:11.553Z,1.83
2023-05-06T16:03:41.262Z,2.58
2023-05-06T16:06:09.259Z,2.58
2023-05-06T16:08:36.877Z,2.20
2023-05-06T16:11:03.639Z,1.23
2023-05-06T16:13:30.141Z,3.92
2023-05-06T16:15:59.269Z,3.67
2023-05-06T16:18:27.213Z,2.50
2023-05-06T16:20:53.869Z,2.47
2023-05-06T16:23:21.482Z,3.20
2023-05-06T16:25:48.551Z,4.63
2023-05-06T16:28:15.288Z,2.50
2023-05-06T16:30:44.734Z,6.60
2023-05-06T16:33:12.151Z,3.22
2023-05-06T16:35:39.354Z,2.35
2023-05-06T16:38:06.565Z,3.25
2023-05-06T16:40:41.416Z,2.13
2023-05-06T16:43:08.459Z,3.90
2023-05-06T16:45:35.005Z,3.47
2023-05-06T16:48:01.947Z,3.00
2023-05-06T16:50:28.675Z,2.47
2023-05-06T16:52:55.244Z,5.30
2023-05-06T16:55:22.031Z,3.13
2023-05-06T16:57:48.625Z,3.65
2023-05-06T17:00:16.538Z,4.32
2023-05-06T17:02:43.514Z,2.28
2023-05-06T17:05:10.251Z,2.45
2023-05-06T17:07:36.857Z,2.67
2023-05-06T17:10:05.116Z,3.25
2023-05-06T17:12:32.318Z,3.47
2023-05-06T17:14:58.957Z,6.70
2023-05-06T17:17:28.681Z,4.65
2023-05-06T17:19:57.480Z,2.03
2023-05-06T17:22:26.364Z,2.53
2023-05-06T17:24:53.176Z,1.73
2023-05-06T17:27:19.750Z,1.60
2023-05-06T17:29:46.741Z,1.75
2023-05-06T17:32:13.545Z,3.92
2023-05-06T17:34:40.277Z,3.28
2023-05-06T17:37:11.358Z,1.48
2023-05-06T17:39:38.486Z,1.33
2023-05-06T17:42:05.288Z,4.90
2023-05-06T17:44:32.978Z,4.35
2023-05-06T17:46:59.916Z,2.88
2023-05-06T17:49:27.024Z,3.67
2023-05-06T17:51:54.059Z,3.95
2023-05-06T17:54:20.820Z,1.30
2023-05-06T17:56:50.572Z,7.57
2023-05-06T17:59:19.136Z,2.03
2023-05-06T18:01:46.103Z,3.83
2023-05-06T18:04:16.491Z,2.53
2023-05-06T18:06:44.260Z,3.28
2023-05-06T18:09:10.942Z,1.98
2023-05-06T18:11:38.853Z,6.57
2023-05-06T18:14:06.456Z,2.47
2023-05-06T18:16:33.289Z,3.30
2023-05-06T18:19:02.761Z,6.32
2023-05-06T18:21:29.608Z,2.80
2023-05-06T18:24:02.413Z,3.38
2023-05-06T18:26:45.470Z,4.43
2023-05-06T18:29:12.996Z,5.43
2023-05-06T18:31:39.798Z,3.70
2023-05-06T18:34:06.644Z,1.85
2023-05-06T18:36:35.170Z,2.92
2023-05-06T18:39:02.624Z,5.43
2023-05-06T18:41:31.218Z,2.55
2023-05-06T18:44:01.716Z,6.50
2023-05-06T18:46:29.189Z,4.88
2023-05-06T18:48:56.139Z,4.00
2023-05-06T18:51:22.822Z,2.10
2023-05-06T18:53:49.818Z,4.03
2023-05-06T18:56:17.152Z,4.88
2023-05-06T18:58:43.952Z,5.18
2023-05-06T19:01:11.329Z,8.18
2023-05-06T19:03:38.541Z,3.55
2023-05-06T19:06:10.824Z,4.20
2023-05-06T19:08:37.826Z,8.18
2023-05-06T19:11:04.772Z,7.65
2023-05-06T19:13:34.609Z,6.32
2023-05-06T19:18:41.703Z,5.43
2023-05-06T19:21:12.812Z,5.75
2023-05-06T19:23:39.608Z,5.82
2023-05-06T19:26:07.133Z,5.63
2023-05-06T19:28:35.264Z,8.13
2023-05-06T19:31:09.798Z,6.78
2023-05-06T19:33:38.151Z,7.20
2023-05-06T19:36:05.247Z,12.05
2023-05-06T19:38:32.275Z,6.43
2023-05-06T19:40:58.989Z,11.02
2023-05-06T19:43:26.322Z,10.13
2023-05-06T19:45:53.018Z,11.35
2023-05-06T19:48:19.913Z,10.98
2023-05-06T19:50:46.986Z,9.68
2023-05-06T19:53:13.556Z,11.02
2023-05-06T19:55:44.688Z,10.02
2023-05-06T19:58:11.712Z,20.75
2023-05-06T20:00:38.813Z,13.27
2023-05-06T20:03:05.736Z,16.55
2023-05-06T20:05:32.461Z,14.55
2023-05-06T20:08:00.448Z,19.23
2023-05-06T20:10:28.486Z,18.13
2023-05-06T20:12:57.901Z,17.02
2023-05-06T20:15:26.642Z,16.20
2023-05-06T20:17:53.543Z,15.73
2023-05-06T20:20:20.572Z,17.27
2023-05-06T20:22:47.519Z,21.83
2023-05-06T20:25:18.867Z,21.17
2023-05-06T20:27:45.894Z,21.25
2023-05-06T20:30:12.800Z,19.48
2023-05-06T20:32:40.750Z,18.25
2023-05-06T20:35:08.057Z,24.38
2023-05-06T20:37:36.232Z,19.48
2023-05-06T20:40:05.747Z,22.40
2023-05-06T20:42:32.402Z,23.23
2023-05-06T20:44:59.394Z,19.98
2023-05-06T20:47:26.894Z,21.38
2023-05-06T20:49:54.313Z,21.38
2023-05-06T20:52:22.135Z,18.83
2023-05-06T20:54:49.228Z,20.63
2023-05-06T20:57:17.849Z,24.55
2023-05-06T20:59:44.544Z,20.38
2023-05-06T21:02:11.577Z,22.50
2023-05-06T21:04:38.711Z,20.92
2023-05-06T21:07:05.645Z,21.17
2023-05-06T21:09:32.510Z,20.30
2023-05-06T21:11:59.237Z,19.70
2023-05-06T21:14:26.731Z,20.35
2023-05-06T21:16:53.905Z,22.90
2023-05-06T21:19:21.005Z,25.77
2023-05-06T21:21:47.759Z,25.83
2023-05-06T21:24:14.373Z,23.27
2023-05-06T21:26:41.189Z,21.42
2023-05-06T21:29:07.845Z,22.17
2023-05-06T21:31:34.793Z,24.10
2023-05-06T21:34:01.464Z,23.80
2023-05-06T21:36:28.026Z,24.77
2023-05-06T21:39:21.058Z,23.67
2023-05-06T21:41:47.742Z,26.10
2023-05-06T21:44:14.378Z,27.88
2023-05-06T21:46:41.348Z,24.05
2023-05-06T21:49:07.966Z,25.42
2023-05-06T21:51:35.481Z,29.90
2023-05-06T21:54:02.885Z,29.73
2023-05-06T21:56:29.851Z,30.23
2023-05-06T21:58:56.706Z,31.65
2023-05-06T22:01:26.333Z,30.45
2023-05-06T22:03:54.257Z,29.85
2023-05-06T22:06:21.587Z,31.58
2023-05-06T22:08:48.321Z,31.83
2023-05-06T22:11:15.303Z,32.65
2023-05-06T22:13:41.916Z,31.63
2023-05-06T22:16:08.674Z,34.38
2023-05-06T22:18:36.145Z,38.45
2023-05-06T22:21:03.390Z,35.72
2023-05-06T22:23:30.115Z,40.35
2023-05-06T22:25:58.601Z,40.33
2023-05-06T22:28:26.424Z,40.33
2023-05-06T22:30:53.007Z,39.20
2023-05-06T22:33:19.616Z,40.85
2023-05-06T22:35:46.608Z,41.35
2023-05-06T22:38:13.346Z,43.22
2023-05-06T22:40:39.923Z,44.53
2023-05-06T22:43:06.541Z,45.00
2023-05-06T22:45:33.165Z,46.50
2023-05-06T22:47:59.955Z,44.70
2023-05-06T22:50:27.305Z,44.55
2023-05-06T22:52:53.988Z,47.58
2023-05-06T22:55:20.972Z,42.10
2023-05-06T22:57:50.123Z,44.30
2023-05-06T23:00:17.514Z,43.30
2023-05-06T23:02:44.335Z,45.20
2023-05-06T23:05:11.780Z,40.03
2023-05-06T23:07:38.886Z,49.17
2023-05-06T23:10:06.223Z,43.50
2023-05-06T23:12:34.105Z,47.67
2023-05-06T23:15:01.279Z,45.97
2023-05-06T23:17:28.074Z,44.05
2023-05-06T23:19:54.794Z,54.95
2023-05-06T23:22:21.571Z,46.92
2023-05-06T23:24:48.315Z,46.28
2023-05-06T23:27:14.922Z,46.63
2023-05-06T23:29:41.468Z,46.83
2023-05-06T23:32:08.963Z,43.28
2023-05-06T23:34:35.551Z,46.00
2023-05-06T23:37:02.094Z,48.22
2023-05-06T23:39:28.607Z,44.67
2023-05-06T23:41:55.310Z,45.63
2023-05-06T23:44:23.144Z,51.63
2023-05-06T23:46:49.973Z,51.67
2023-05-06T23:49:16.657Z,54.42
2023-05-06T23:51:43.237Z,48.03
2023-05-06T23:54:12.566Z,53.15
2023-05-06T23:56:39.716Z,51.13
2023-05-06T23:59:06.273Z,48.55
